createdAt,value
2019-05-07T00:00:43.787Z,683.79
2019-05-07T00:01:42.983Z,682.75
2019-05-07T00:02:42.964Z,681.68
2019-05-07T00:03:42.971Z,680.84
2019-05-07T00:04:43.673Z,680.23
2019-05-07T00:09:22.986Z,675.91
2019-05-07T00:10:21.791Z,675.03
2019-05-07T00:11:22.309Z,674
2019-05-07T00:12:22.806Z,674.52
2019-05-07T00:13:22.681Z,673.12
2019-05-07T00:14:22.866Z,674.32
2019-05-07T00:15:22.782Z,674
2019-05-07T00:16:22.371Z,674.67
2019-05-07T00:17:22.599Z,673.73
2019-05-07T00:18:22.689Z,673.24
2019-05-07T00:19:22.843Z,671.72
2019-05-07T00:20:22.875Z,670.72
2019-05-07T00:21:22.670Z,670.74
2019-05-07T00:22:22.673Z,669.87
2019-05-07T00:23:22.913Z,668.25
2019-05-07T00:24:22.299Z,666.56
2019-05-07T00:25:22.703Z,666.24
2019-05-07T00:26:22.529Z,665.33
2019-05-07T00:27:22.547Z,664.87
2019-05-07T00:28:22.963Z,665.1
2019-05-07T00:29:24.197Z,664.41
2019-05-07T00:30:22.300Z,663.84
2019-05-07T00:31:22.996Z,663.42
2019-05-07T00:32:22.107Z,662.24
2019-05-07T00:33:22.671Z,662.27
2019-05-07T00:34:21.951Z,660.65
2019-05-07T00:35:22.537Z,660.09
2019-05-07T00:36:22.874Z,658.52
2019-05-07T00:37:22.001Z,657.11
2019-05-07T00:38:22.403Z,655.89
2019-05-07T00:39:21.916Z,655.91
2019-05-07T00:40:22.519Z,653.61
2019-05-07T00:41:22.733Z,653.44
2019-05-07T00:42:22.020Z,652.62
2019-05-07T00:43:22.631Z,651.69
2019-05-07T00:44:22.061Z,651.03
2019-05-07T00:45:23.725Z,649.22
2019-05-07T00:46:22.573Z,648.15
2019-05-07T00:47:22.220Z,647.88
2019-05-07T00:48:20.765Z,646.26
2019-05-07T00:49:22.118Z,645.6
2019-05-07T00:50:22.490Z,644.9
2019-05-07T00:51:22.580Z,645.05
2019-05-07T00:52:22.519Z,643.41
2019-05-07T00:53:20.734Z,642.7
2019-05-07T00:54:22.786Z,641.81
2019-05-07T00:55:22.552Z,640.04
2019-05-07T00:56:22.286Z,639.5
2019-05-07T01:00:53.938Z,636.41
2019-05-07T01:01:53.926Z,636.41
2019-05-07T01:02:54.261Z,635.5
2019-05-07T01:03:53.904Z,634.82
2019-05-07T01:04:53.928Z,634.21
2019-05-07T01:05:54.236Z,634.04
2019-05-07T01:06:53.903Z,633.88
2019-05-07T01:07:53.930Z,634.05
2019-05-07T01:08:53.935Z,634.22
2019-05-07T01:09:54.625Z,632.96
2019-05-07T01:10:53.913Z,632.79
2019-05-07T01:11:53.939Z,631.8
2019-05-07T01:12:53.907Z,630.1
2019-05-07T01:13:53.913Z,629.9
2019-05-07T01:14:54.104Z,628.13
2019-05-07T01:15:53.908Z,628.45
2019-05-07T01:16:53.913Z,628.51
2019-05-07T01:17:53.944Z,627.91
2019-05-07T01:18:53.926Z,627.2
2019-05-07T01:19:53.952Z,626.14
2019-05-07T01:20:53.922Z,625.41
2019-05-07T01:21:53.924Z,624.5
2019-05-07T01:22:54.593Z,624.3
2019-05-07T01:23:53.937Z,623.38
2019-05-07T01:24:53.964Z,623.42
2019-05-07T01:25:53.932Z,623.79
2019-05-07T01:26:54.301Z,624.08
2019-05-07T01:27:53.943Z,623.8
2019-05-07T01:28:53.948Z,623.55
2019-05-07T01:29:53.957Z,623.29
2019-05-07T01:30:53.963Z,622.94
2019-05-07T01:31:53.952Z,623.12
2019-05-07T01:32:53.935Z,624.04
2019-05-07T01:33:53.944Z,624.56
2019-05-07T01:34:53.966Z,624.73
2019-05-07T01:35:53.953Z,624.92
2019-05-07T01:36:53.960Z,624.17
2019-05-07T01:37:53.968Z,623.79
2019-05-07T01:38:53.994Z,623.44
2019-05-07T01:39:53.945Z,623.42
2019-05-07T01:40:53.951Z,623.42
2019-05-07T01:41:53.959Z,622.74
2019-05-07T01:42:53.988Z,622.12
2019-05-07T01:43:53.953Z,622.75
2019-05-07T01:44:53.958Z,621.74
2019-05-07T01:45:53.986Z,622.02
2019-05-07T01:46:53.972Z,621.23
2019-05-07T01:47:53.982Z,620.85
2019-05-07T01:48:57.311Z,620.71
2019-05-07T01:49:55.042Z,619.77
2019-05-07T01:50:54.813Z,619.46
2019-05-07T01:51:53.964Z,618.11
2019-05-07T01:52:53.994Z,617.4
2019-05-07T01:53:53.998Z,616.66
2019-05-07T01:54:54.209Z,615.99
2019-05-07T01:55:54.806Z,615.77
2019-05-07T01:56:54.013Z,614.74
2019-05-07T01:57:53.980Z,614.9
2019-05-07T01:58:53.986Z,614.37
2019-05-07T01:59:53.977Z,614.56
2019-05-07T02:00:53.998Z,614.45
2019-05-07T02:01:54.361Z,614.75
2019-05-07T02:06:22.888Z,614.14
2019-05-07T02:07:22.839Z,614.63
2019-05-07T02:08:22.846Z,614.26
2019-05-07T02:09:22.854Z,613.54
2019-05-07T02:10:22.839Z,612.63
2019-05-07T02:11:22.878Z,611.54
2019-05-07T02:12:22.874Z,611.15
2019-05-07T02:13:22.880Z,609.78
2019-05-07T02:14:22.862Z,609.22
2019-05-07T02:15:22.869Z,608.39
2019-05-07T02:16:22.875Z,607.19
2019-05-07T02:17:22.939Z,605.56
2019-05-07T02:18:22.846Z,604.42
2019-05-07T02:19:22.876Z,603.67
2019-05-07T02:20:22.858Z,602.79
2019-05-07T02:21:22.861Z,601.64
2019-05-07T02:22:22.854Z,600.59
2019-05-07T02:23:22.856Z,600.65
2019-05-07T02:24:22.865Z,600.32
2019-05-07T02:25:22.870Z,598.96
2019-05-07T02:26:22.878Z,599.01
2019-05-07T02:27:22.866Z,597.96
2019-05-07T02:28:22.895Z,597.7
2019-05-07T02:29:22.890Z,597.92
2019-05-07T02:30:23.947Z,598.13
2019-05-07T02:31:23.353Z,597.78
2019-05-07T02:32:23.975Z,597.81
2019-05-07T02:33:23.191Z,597.42
2019-05-07T02:34:23.496Z,597.68
2019-05-07T02:35:23.598Z,597.46
2019-05-07T02:36:23.630Z,597.27
2019-05-07T02:37:27.228Z,597.28
2019-05-07T02:38:23.277Z,597.44
2019-05-07T02:39:24.172Z,597.65
2019-05-07T02:43:54.512Z,596.94
2019-05-07T02:44:55.904Z,596.97
2019-05-07T02:45:54.489Z,596.99
2019-05-07T02:46:54.487Z,596.92
2019-05-07T02:47:54.514Z,596.88
2019-05-07T02:48:54.483Z,597.48
2019-05-07T02:49:54.491Z,597.83
2019-05-07T02:50:54.498Z,597.11
2019-05-07T02:51:54.521Z,596.91
2019-05-07T02:52:54.490Z,597.66
2019-05-07T02:53:54.495Z,597.65
2019-05-07T02:54:54.528Z,596.89
2019-05-07T02:55:54.530Z,597.46
2019-05-07T02:56:54.557Z,597.42
2019-05-07T02:57:54.536Z,596.93
2019-05-07T02:58:54.588Z,596.6
2019-05-07T02:59:54.752Z,596.17
2019-05-07T03:00:54.526Z,593.56
2019-05-07T03:01:54.956Z,594.38
2019-05-07T03:02:54.575Z,593.64
2019-05-07T03:03:54.560Z,592.81
2019-05-07T03:04:54.543Z,592.12
2019-05-07T03:05:54.535Z,591.82
2019-05-07T03:06:54.644Z,591.2
2019-05-07T03:07:54.548Z,590.24
2019-05-07T03:08:54.538Z,589.4
2019-05-07T03:09:54.534Z,588.66
2019-05-07T03:10:54.541Z,587.7
2019-05-07T03:11:55.456Z,586.2
2019-05-07T03:12:54.529Z,586.03
2019-05-07T03:13:54.545Z,584.09
2019-05-07T03:14:54.545Z,583.71
2019-05-07T03:15:54.531Z,583.73
2019-05-07T03:16:56.585Z,582.74
2019-05-07T03:17:54.849Z,582.55
2019-05-07T03:18:54.555Z,582.41
2019-05-07T03:19:54.562Z,581.71
2019-05-07T03:20:54.525Z,581.83
2019-05-07T03:21:55.099Z,582.09
2019-05-07T03:22:54.543Z,582.22
2019-05-07T03:23:54.569Z,581.4
2019-05-07T03:24:54.561Z,582
2019-05-07T03:25:54.574Z,581.19
2019-05-07T03:26:54.547Z,581.61
2019-05-07T03:27:54.558Z,581.29
2019-05-07T03:28:54.594Z,581.65
2019-05-07T03:29:54.571Z,580.71
2019-05-07T03:30:56.600Z,580.44
2019-05-07T03:31:56.078Z,579.63
2019-05-07T03:32:56.035Z,579.24
2019-05-07T03:33:55.804Z,579.32
2019-05-07T03:34:57.598Z,578.9
2019-05-07T03:35:56.427Z,577.62
2019-05-07T03:36:56.225Z,577.19
2019-05-07T03:37:55.311Z,576.84
2019-05-07T03:38:54.583Z,575.45
2019-05-07T03:39:55.638Z,575.05
2019-05-07T03:40:54.596Z,574.5
2019-05-07T03:41:54.562Z,573.79
2019-05-07T03:42:54.574Z,572.79
2019-05-07T03:43:54.576Z,572.52
2019-05-07T03:44:54.561Z,571.71
2019-05-07T03:45:54.589Z,570.81
2019-05-07T03:50:26.652Z,567.09
2019-05-07T03:51:33.778Z,567.45
2019-05-07T03:52:26.683Z,567.12
2019-05-07T03:53:26.603Z,567.28
2019-05-07T03:54:27.035Z,567.45
2019-05-07T03:55:26.816Z,567.53
2019-05-07T03:56:26.624Z,567.11
2019-05-07T03:57:26.631Z,567.48
2019-05-07T03:58:26.618Z,568.23
2019-05-07T03:59:26.667Z,568.44
2019-05-07T04:00:26.974Z,568.97
2019-05-07T04:01:26.651Z,568.74
2019-05-07T04:02:26.638Z,569.11
2019-05-07T04:03:26.628Z,569.89
2019-05-07T04:04:26.634Z,570.11
2019-05-07T04:05:26.643Z,570.48
2019-05-07T04:06:26.628Z,568.9
2019-05-07T04:07:26.672Z,570.61
2019-05-07T04:08:26.796Z,571.08
2019-05-07T04:09:35.506Z,570.81
2019-05-07T04:10:26.697Z,570.87
2019-05-07T04:11:26.684Z,570.86
2019-05-07T04:12:26.668Z,571.09
2019-05-07T04:13:26.658Z,570.7
2019-05-07T04:14:26.701Z,569.91
2019-05-07T04:15:26.661Z,570.52
2019-05-07T04:16:26.655Z,570.01
2019-05-07T04:17:27.277Z,569.45
2019-05-07T04:18:26.651Z,569.01
2019-05-07T04:19:26.676Z,569.16
2019-05-07T04:20:26.665Z,569.5
2019-05-07T04:21:26.674Z,569.8
2019-05-07T04:22:29.007Z,569.58
2019-05-07T04:23:26.664Z,569.85
2019-05-07T04:24:26.976Z,570.65
2019-05-07T04:25:27.027Z,570.09
2019-05-07T04:26:26.660Z,571.39
2019-05-07T04:27:26.683Z,571.45
2019-05-07T04:28:27.062Z,571.88
2019-05-07T04:29:26.676Z,572.58
2019-05-07T04:30:26.670Z,572.6
2019-05-07T04:31:26.695Z,572.69
2019-05-07T04:32:26.680Z,572.87
2019-05-07T04:33:26.666Z,573.83
2019-05-07T04:34:26.696Z,574.17
2019-05-07T04:35:26.674Z,573.7
2019-05-07T04:36:26.705Z,574.33
2019-05-07T04:37:26.690Z,575.19
2019-05-07T04:38:26.693Z,575.59
2019-05-07T04:39:34.697Z,576.61
2019-05-07T04:46:15.262Z,584.53
2019-05-07T04:47:32.626Z,586.04
2019-05-07T04:48:15.212Z,587.31
2019-05-07T04:49:15.207Z,588.46
2019-05-07T04:50:32.799Z,589.95
2019-05-07T04:51:15.236Z,591.64
2019-05-07T04:52:15.475Z,592.03
2019-05-07T04:53:15.222Z,592.96
2019-05-07T04:54:15.227Z,593.51
2019-05-07T04:55:15.219Z,593.84
2019-05-07T04:56:15.234Z,593.82
2019-05-07T04:57:15.212Z,595.31
2019-05-07T04:58:15.240Z,594.2
2019-05-07T04:59:15.242Z,596.06
2019-05-07T05:00:15.211Z,596.84
2019-05-07T05:01:15.218Z,598.04
2019-05-07T05:02:15.224Z,598.81
2019-05-07T05:03:15.211Z,600.09
2019-05-07T05:04:24.734Z,601.15
2019-05-07T05:05:15.228Z,604.06
2019-05-07T05:06:15.222Z,608.42
2019-05-07T05:07:15.224Z,612.75
2019-05-07T05:08:15.234Z,617.97
2019-05-07T05:09:15.277Z,622.44
2019-05-07T05:10:15.232Z,624.43
2019-05-07T05:11:15.229Z,627.85
2019-05-07T05:12:15.415Z,628.86
2019-05-07T05:13:15.238Z,630.42
2019-05-07T05:14:15.245Z,631.16
2019-05-07T05:15:15.259Z,632.46
2019-05-07T05:16:15.574Z,632.97
2019-05-07T05:17:15.248Z,633.93
2019-05-07T05:18:15.229Z,634.01
2019-05-07T05:19:15.232Z,634.04
2019-05-07T05:20:15.239Z,634.98
2019-05-07T05:21:15.247Z,634.92
2019-05-07T05:22:15.339Z,635.37
2019-05-07T05:23:15.241Z,636.21
2019-05-07T05:24:15.244Z,637
2019-05-07T05:25:15.293Z,639.62
2019-05-07T05:26:15.278Z,641.74
2019-05-07T05:27:15.272Z,643.37
2019-05-07T05:28:15.288Z,644.42
2019-05-07T05:29:15.298Z,645.83
2019-05-07T05:30:15.290Z,644.51
2019-05-07T05:31:15.256Z,649.15
2019-05-07T05:32:15.280Z,650.66
2019-05-07T05:33:15.283Z,652.31
2019-05-07T05:34:15.418Z,653.98
2019-05-07T05:35:15.463Z,655.58
2019-05-07T05:36:15.268Z,656.82
2019-05-07T05:37:15.297Z,658.7
2019-05-07T05:38:15.260Z,660.43
2019-05-07T05:39:15.262Z,661.12
2019-05-07T05:40:15.270Z,663.01
2019-05-07T05:41:16.173Z,665.23
2019-05-07T05:42:15.300Z,667.2
2019-05-07T05:43:15.273Z,670.16
2019-05-07T05:50:42.239Z,672.31
2019-05-07T05:50:54.371Z,688.48
2019-05-07T05:51:55.010Z,690.77
2019-05-07T05:52:54.344Z,692.96
2019-05-07T05:53:55.332Z,695.12
2019-05-07T05:54:54.889Z,697.3
2019-05-07T05:55:54.362Z,699.63
2019-05-07T05:56:54.375Z,702.11
2019-05-07T05:57:54.378Z,705.3
2019-05-07T05:58:54.379Z,708.54
2019-05-07T05:59:55.523Z,711.66
2019-05-07T06:00:54.400Z,713.74
2019-05-07T06:01:54.378Z,716.16
2019-05-07T06:02:54.370Z,718.68
2019-05-07T06:03:54.792Z,721.06
2019-05-07T06:04:54.385Z,725.12
2019-05-07T06:05:54.394Z,728.35
2019-05-07T06:07:07.838Z,732.02
2019-05-07T06:07:54.361Z,737.14
2019-05-07T06:08:54.389Z,739.78
2019-05-07T06:09:54.402Z,742.71
2019-05-07T06:10:54.372Z,746.31
2019-05-07T06:11:54.381Z,748.77
2019-05-07T06:12:54.405Z,753.18
2019-05-07T06:13:54.373Z,756.16
2019-05-07T06:14:54.398Z,758.79
2019-05-07T06:15:54.377Z,762
2019-05-07T06:16:54.474Z,765.07
2019-05-07T06:17:54.686Z,769.25
2019-05-07T06:18:54.404Z,773.77
2019-05-07T06:19:54.446Z,776.84
2019-05-07T06:20:54.380Z,779.67
2019-05-07T06:21:54.390Z,782.58
2019-05-07T06:22:55.520Z,784.69
2019-05-07T06:23:54.390Z,787.48
2019-05-07T06:24:56.465Z,790.35
2019-05-07T06:25:54.977Z,792.23
2019-05-07T06:26:54.392Z,794.04
2019-05-07T06:27:54.397Z,796.73
2019-05-07T06:28:54.403Z,800.28
2019-05-07T06:29:54.389Z,801.94
2019-05-07T06:30:54.400Z,805.55
2019-05-07T06:31:54.404Z,808.13
2019-05-07T06:32:54.409Z,812.08
2019-05-07T06:33:54.395Z,813.9
2019-05-07T06:34:54.405Z,816.94
2019-05-07T06:35:54.962Z,820.51
2019-05-07T06:36:54.418Z,825.89
2019-05-07T06:37:54.593Z,831.31
2019-05-07T06:38:54.452Z,833.68
2019-05-07T06:39:54.560Z,836.57
2019-05-07T06:40:55.099Z,841.68
2019-05-07T06:41:54.411Z,845.8
2019-05-07T06:42:54.403Z,856.59
2019-05-07T06:43:54.920Z,862.17
2019-05-07T06:44:54.410Z,867.09
2019-05-07T06:45:54.415Z,873.34
2019-05-07T06:46:54.407Z,880.1
2019-05-07T06:47:54.429Z,886.51
2019-05-07T06:48:54.436Z,895.6
2019-05-07T06:49:54.667Z,909.57
2019-05-07T06:50:54.448Z,918.83
2019-05-07T06:51:54.415Z,927.39
2019-05-07T06:52:54.443Z,931.95
2019-05-07T06:53:54.443Z,938.6
2019-05-07T06:54:54.526Z,945.57
2019-05-07T06:55:54.427Z,953.86
2019-05-07T06:56:54.426Z,962.87
2019-05-07T06:57:54.433Z,965.75
2019-05-07T06:58:54.463Z,968.72
2019-05-07T06:59:54.455Z,977.61
2019-05-07T07:00:54.433Z,985.1
2019-05-07T07:01:54.464Z,992.13
2019-05-07T07:02:54.885Z,997.12
2019-05-07T07:03:55.486Z,1000.35
2019-05-07T07:04:55.141Z,1004.88
2019-05-07T07:05:54.474Z,1008.29
2019-05-07T07:06:55.015Z,1011.88
2019-05-07T07:07:54.482Z,1016.51
2019-05-07T07:08:54.452Z,1018.72
2019-05-07T07:09:54.518Z,1024.92
2019-05-07T07:10:55.766Z,1027.13
2019-05-07T07:11:54.489Z,1030.42
2019-05-07T07:12:54.645Z,1033.88
2019-05-07T07:13:55.136Z,1039.35
2019-05-07T07:14:54.482Z,1044.13
2019-05-07T07:15:54.490Z,1047.28
2019-05-07T07:16:54.494Z,1049.87
2019-05-07T07:17:54.482Z,1051.54
2019-05-07T07:18:55.717Z,1052.95
2019-05-07T07:19:54.481Z,1052.52
2019-05-07T07:20:54.479Z,1052.43
2019-05-07T07:21:54.486Z,1053.23
2019-05-07T07:22:54.502Z,1054.74
2019-05-07T07:23:54.481Z,1058.22
2019-05-07T07:24:54.466Z,1062.18
2019-05-07T07:25:55.087Z,1066.67
2019-05-07T07:26:54.993Z,1071.42
2019-05-07T07:27:54.483Z,1074.94
2019-05-07T07:28:54.512Z,1077.58
2019-05-07T07:29:54.519Z,1078.08
2019-05-07T07:30:54.492Z,1080.1
2019-05-07T07:31:54.496Z,1082.92
2019-05-07T07:32:54.539Z,1085.91
2019-05-07T07:33:54.488Z,1089.13
2019-05-07T07:34:54.497Z,1093.2
2019-05-07T07:35:54.523Z,1095.7
2019-05-07T07:37:04.834Z,1097.9
2019-05-07T07:37:54.518Z,1100.67
2019-05-07T07:38:54.543Z,1102.67
2019-05-07T07:39:54.561Z,1104.03
2019-05-07T07:40:54.627Z,1104.37
2019-05-07T07:41:54.540Z,1104.19
2019-05-07T07:42:54.573Z,1105.67
2019-05-07T07:43:54.555Z,1107.34
2019-05-07T07:44:54.538Z,1108.59
2019-05-07T07:45:54.551Z,1109.64
2019-05-07T07:46:54.554Z,1110.15
2019-05-07T07:47:54.564Z,1110.53
2019-05-07T07:49:06.355Z,1110.75
2019-05-07T07:49:54.862Z,1111.15
2019-05-07T07:50:54.542Z,1111.2
2019-05-07T07:51:54.534Z,1111.61
2019-05-07T07:56:24.457Z,1114.11
2019-05-07T07:57:24.218Z,1115.2
2019-05-07T07:58:24.203Z,1115.62
2019-05-07T07:59:24.269Z,1115.49
2019-05-07T08:00:26.051Z,1115.85
2019-05-07T08:01:24.223Z,1116.22
2019-05-07T08:02:24.230Z,1116.15
2019-05-07T08:03:24.233Z,1115.67
2019-05-07T08:04:24.241Z,1114.88
2019-05-07T08:05:24.541Z,1114.4
2019-05-07T08:06:24.216Z,1113.89
2019-05-07T08:07:24.247Z,1113.9
2019-05-07T08:08:24.228Z,1113.65
2019-05-07T08:09:25.855Z,1114.12
2019-05-07T08:10:24.258Z,1114.95
2019-05-07T08:11:24.243Z,1115.62
2019-05-07T08:12:24.269Z,1115.33
2019-05-07T08:13:24.236Z,1115.16
2019-05-07T08:14:24.266Z,1114.85
2019-05-07T08:15:24.729Z,1115.02
2019-05-07T08:16:24.313Z,1115.34
2019-05-07T08:17:24.515Z,1115.23
2019-05-07T08:18:24.232Z,1116.06
2019-05-07T08:19:25.056Z,1116.52
2019-05-07T08:20:24.263Z,1117.03
2019-05-07T08:21:24.248Z,1117.34
2019-05-07T08:22:24.254Z,1117.86
2019-05-07T08:23:24.262Z,1117.68
2019-05-07T08:24:24.286Z,1117.21
2019-05-07T08:25:24.889Z,1117.46
2019-05-07T08:26:24.283Z,1118.15
2019-05-07T08:27:24.248Z,1119
2019-05-07T08:28:24.256Z,1119.51
2019-05-07T08:29:24.300Z,1119.8
2019-05-07T08:30:24.287Z,1120.71
2019-05-07T08:31:24.274Z,1121.73
2019-05-07T08:32:24.320Z,1122.27
2019-05-07T08:33:24.324Z,1122.74
2019-05-07T08:34:24.275Z,1123.18
2019-05-07T08:35:24.305Z,1123.89
2019-05-07T08:36:24.265Z,1123.65
2019-05-07T08:37:24.578Z,1123.13
2019-05-07T08:38:24.261Z,1122.77
2019-05-07T08:39:25.089Z,1122.73
2019-05-07T08:40:24.306Z,1123.46
2019-05-07T08:41:24.290Z,1123.93
2019-05-07T08:42:24.276Z,1124.62
2019-05-07T08:43:24.304Z,1125.68
2019-05-07T08:44:24.287Z,1126.69
2019-05-07T08:45:24.995Z,1127.43
2019-05-07T08:46:24.278Z,1128.1
2019-05-07T08:47:24.286Z,1128.86
2019-05-07T08:48:24.304Z,1129.21
2019-05-07T08:49:35.455Z,1129.31
2019-05-07T08:50:24.285Z,1129.22
2019-05-07T08:51:24.319Z,1129.33
2019-05-07T08:52:25.959Z,1129.73
2019-05-07T08:53:24.307Z,1130.17
2019-05-07T08:54:24.809Z,1130.08
2019-05-07T08:55:24.285Z,1130.14
2019-05-07T08:56:24.291Z,1130.57
2019-05-07T08:57:24.294Z,1131.15
2019-05-07T08:58:24.301Z,1131.72
2019-05-07T08:59:24.327Z,1132.17
2019-05-07T09:00:24.540Z,1132.39
2019-05-07T09:01:24.328Z,1132.53
2019-05-07T09:02:24.321Z,1132.44
2019-05-07T09:03:25.029Z,1132.22
2019-05-07T09:04:24.304Z,1131.87
2019-05-07T09:05:24.308Z,1131.36
2019-05-07T09:06:24.314Z,1131.23
2019-05-07T09:07:24.365Z,1130.98
2019-05-07T09:08:24.327Z,1130.97
2019-05-07T09:09:24.313Z,1131.09
2019-05-07T09:10:24.360Z,1131.31
2019-05-07T09:11:24.339Z,1131.44
2019-05-07T09:12:24.326Z,1131.41
2019-05-07T09:13:24.319Z,1131.65
2019-05-07T09:14:26.183Z,1131.94
2019-05-07T09:15:24.324Z,1132.24
2019-05-07T09:16:24.339Z,1132.53
2019-05-07T09:17:26.140Z,1132.82
2019-05-07T09:18:24.326Z,1133.08
2019-05-07T09:19:24.353Z,1133.32
2019-05-07T09:20:24.346Z,1133.42
2019-05-07T09:21:24.350Z,1133.48
2019-05-07T09:22:24.329Z,1133.56
2019-05-07T09:23:24.364Z,1133.56
2019-05-07T09:24:24.364Z,1133.54
2019-05-07T09:25:24.358Z,1133.54
2019-05-07T09:26:24.486Z,1133.47
2019-05-07T09:27:24.346Z,1133.33
2019-05-07T09:28:24.351Z,1133.22
2019-05-07T09:29:24.343Z,1133.04
2019-05-07T09:30:24.366Z,1132.74
2019-05-07T09:31:24.369Z,1132.44
2019-05-07T09:32:24.357Z,1132.86
2019-05-07T09:33:24.386Z,1133.33
2019-05-07T09:34:24.349Z,1133.47
2019-05-07T09:35:24.356Z,1133.43
2019-05-07T09:36:24.371Z,1133.3
2019-05-07T09:37:24.378Z,1133.02
2019-05-07T09:38:24.386Z,1132.79
2019-05-07T09:39:24.361Z,1132.83
2019-05-07T09:40:24.521Z,1133.02
2019-05-07T09:41:24.364Z,1133.15
2019-05-07T09:42:24.378Z,1133.11
2019-05-07T09:43:24.413Z,1133.3
2019-05-07T09:44:24.422Z,1133.3
2019-05-07T09:45:24.574Z,1133.28
2019-05-07T09:46:24.443Z,1133.23
2019-05-07T09:47:24.406Z,1133.26
2019-05-07T09:48:24.406Z,1133.28
2019-05-07T09:49:24.378Z,1133.18
2019-05-07T09:50:24.386Z,1133.14
2019-05-07T09:51:24.404Z,1133.16
2019-05-07T09:52:25.379Z,1133.24
2019-05-07T09:53:24.418Z,1133.18
2019-05-07T09:54:24.412Z,1133.05
2019-05-07T09:55:24.418Z,1132.82
2019-05-07T09:56:24.417Z,1132.54
2019-05-07T09:57:30.358Z,1132.17
2019-05-07T09:58:35.488Z,1131.65
2019-05-07T09:59:24.432Z,1131.16
2019-05-07T10:00:24.449Z,1130.76
2019-05-07T10:01:24.703Z,1130.34
2019-05-07T10:02:24.443Z,1129.8
2019-05-07T10:03:24.694Z,1129.43
2019-05-07T10:04:24.458Z,1128.79
2019-05-07T10:05:24.545Z,1127.86
2019-05-07T10:06:24.449Z,1126.7
2019-05-07T10:07:24.431Z,1125.78
2019-05-07T10:08:24.459Z,1124.8
2019-05-07T10:09:24.428Z,1123.95
2019-05-07T10:10:24.486Z,1122.98
2019-05-07T10:11:24.474Z,1122.04
2019-05-07T10:12:24.671Z,1120.8
2019-05-07T10:13:24.491Z,1119.18
2019-05-07T10:14:24.491Z,1117.75
2019-05-07T10:15:24.484Z,1116.24
2019-05-07T10:16:24.501Z,1114.98
2019-05-07T10:17:24.475Z,1113.95
2019-05-07T10:18:24.486Z,1113.2
2019-05-07T10:19:24.545Z,1112.64
2019-05-07T10:20:24.476Z,1112.19
2019-05-07T10:21:24.500Z,1111.46
2019-05-07T10:22:24.485Z,1111.03
2019-05-07T10:23:24.469Z,1110.54
2019-05-07T10:24:24.464Z,1109.79
2019-05-07T10:25:24.694Z,1109.23
2019-05-07T10:26:24.490Z,1108.82
2019-05-07T10:27:24.500Z,1108.11
2019-05-07T10:28:24.683Z,1107.6
2019-05-07T10:29:24.449Z,1107.17
2019-05-07T10:30:24.454Z,1106.8
2019-05-07T10:31:24.468Z,1106.67
2019-05-07T10:32:24.446Z,1106.79
2019-05-07T10:33:24.483Z,1107.28
2019-05-07T10:34:24.501Z,1107.66
2019-05-07T10:35:24.583Z,1107.89
2019-05-07T10:36:24.461Z,1107.84
2019-05-07T10:37:24.468Z,1107.74
2019-05-07T10:38:24.488Z,1107.68
2019-05-07T10:39:24.481Z,1107.51
2019-05-07T10:40:24.514Z,1107.41
2019-05-07T10:41:24.475Z,1107.42
2019-05-07T10:42:24.489Z,1107.44
2019-05-07T10:43:24.495Z,1107.33
2019-05-07T10:44:24.491Z,1106.93
2019-05-07T10:45:24.493Z,1106.39
2019-05-07T10:46:24.477Z,1105.62
2019-05-07T10:47:24.513Z,1105.17
2019-05-07T10:48:24.485Z,1104.53
2019-05-07T10:49:24.475Z,1104.11
2019-05-07T10:50:35.238Z,1103.7
2019-05-07T10:51:24.488Z,1103.11
2019-05-07T10:52:24.499Z,1103
2019-05-07T10:53:24.481Z,1102.84
2019-05-07T10:54:24.511Z,1102.84
2019-05-07T10:55:24.491Z,1102.84
2019-05-07T10:56:24.509Z,1102.95
2019-05-07T10:57:24.504Z,1103.08
2019-05-07T10:58:24.513Z,1103.5
2019-05-07T10:59:24.497Z,1103.7
2019-05-07T11:00:24.891Z,1103.83
2019-05-07T11:01:24.498Z,1104.2
2019-05-07T11:02:24.871Z,1104.24
2019-05-07T11:03:24.794Z,1104.61
2019-05-07T11:04:24.517Z,1105.09
2019-05-07T11:05:25.762Z,1105.52
2019-05-07T11:06:24.505Z,1106.14
2019-05-07T11:07:24.554Z,1106.63
2019-05-07T11:08:25.751Z,1107.16
2019-05-07T11:09:24.530Z,1108.02
2019-05-07T11:10:24.560Z,1108.76
2019-05-07T11:11:24.521Z,1109.31
2019-05-07T11:12:24.695Z,1109.88
2019-05-07T11:13:24.514Z,1110.61
2019-05-07T11:14:24.546Z,1111.18
2019-05-07T11:15:43.659Z,1111.96
2019-05-07T11:16:43.649Z,1113.03
2019-05-07T11:17:43.652Z,1113.85
2019-05-07T11:18:43.620Z,1114.57
2019-05-07T11:19:43.637Z,1115.33
2019-05-07T11:20:49.259Z,1115.87
2019-05-07T11:21:43.633Z,1116.44
2019-05-07T11:22:43.619Z,1116.64
2019-05-07T11:23:43.625Z,1116.96
2019-05-07T11:24:43.658Z,1117.23
2019-05-07T11:25:43.639Z,1117.69
2019-05-07T11:26:43.648Z,1118.29
2019-05-07T11:27:43.651Z,1118.44
2019-05-07T11:28:43.660Z,1118.9
2019-05-07T11:29:43.641Z,1119.63
2019-05-07T11:30:43.672Z,1120.44
2019-05-07T11:31:43.660Z,1121.5
2019-05-07T11:32:43.662Z,1122.43
2019-05-07T11:33:44.210Z,1123.51
2019-05-07T11:34:43.660Z,1124.45
2019-05-07T11:35:43.663Z,1125.03
2019-05-07T11:36:43.659Z,1125.72
2019-05-07T11:37:44.413Z,1126.4
2019-05-07T11:38:44.625Z,1126.96
2019-05-07T11:39:43.670Z,1127.21
2019-05-07T11:40:43.700Z,1127.53
2019-05-07T11:41:43.688Z,1127.93
2019-05-07T11:42:45.075Z,1128.8
2019-05-07T11:43:44.771Z,1129.07
2019-05-07T11:44:43.697Z,1129.42
2019-05-07T11:45:43.672Z,1129.55
2019-05-07T11:46:44.389Z,1129.44
2019-05-07T11:47:43.663Z,1129.48
2019-05-07T11:48:43.678Z,1129.74
2019-05-07T11:49:43.688Z,1129.97
2019-05-07T11:50:43.686Z,1130.15
2019-05-07T11:55:27.071Z,1131.14
2019-05-07T11:56:27.071Z,1131.15
2019-05-07T11:57:27.084Z,1131.2
2019-05-07T11:58:27.044Z,1131.13
2019-05-07T11:59:27.040Z,1131.11
2019-05-07T12:00:27.040Z,1130.73
2019-05-07T12:01:34.726Z,1130.33
2019-05-07T12:02:27.051Z,1129.9
2019-05-07T12:03:27.063Z,1129.58
2019-05-07T12:04:27.928Z,1129.39
2019-05-07T12:05:27.058Z,1129.05
2019-05-07T12:06:27.048Z,1128.76
2019-05-07T12:07:27.043Z,1128.34
2019-05-07T12:08:38.308Z,1127.93
2019-05-07T12:09:27.122Z,1127.58
2019-05-07T12:10:27.124Z,1127.43
2019-05-07T12:11:27.042Z,1127.61
2019-05-07T12:12:27.050Z,1127.78
2019-05-07T12:13:27.074Z,1128.32
2019-05-07T12:14:31.713Z,1128.56
2019-05-07T12:15:27.073Z,1128.68
2019-05-07T12:16:27.063Z,1128.5
2019-05-07T12:17:27.058Z,1128.46
2019-05-07T12:18:27.073Z,1128.45
2019-05-07T12:19:27.075Z,1128.43
2019-05-07T12:20:27.062Z,1128.43
2019-05-07T12:21:27.064Z,1128.19
2019-05-07T12:22:27.091Z,1127.7
2019-05-07T12:23:27.101Z,1127.32
2019-05-07T12:24:27.067Z,1126.87
2019-05-07T12:25:27.105Z,1126.55
2019-05-07T12:26:27.102Z,1126.17
2019-05-07T12:27:27.105Z,1125.77
2019-05-07T12:28:27.088Z,1125.25
2019-05-07T12:29:27.103Z,1124.57
2019-05-07T12:30:27.109Z,1123.83
2019-05-07T12:31:27.076Z,1123.05
2019-05-07T12:32:27.078Z,1121.97
2019-05-07T12:33:27.105Z,1120.48
2019-05-07T12:34:27.190Z,1119.44
2019-05-07T12:35:27.105Z,1118.5
2019-05-07T12:36:27.107Z,1117.16
2019-05-07T12:37:27.116Z,1116.1
2019-05-07T12:38:27.097Z,1115.18
2019-05-07T12:39:27.104Z,1114.63
2019-05-07T12:40:27.132Z,1114.09
2019-05-07T12:41:27.097Z,1113.5
2019-05-07T12:42:27.122Z,1112.98
2019-05-07T12:43:27.145Z,1112.46
2019-05-07T12:44:27.096Z,1112.28
2019-05-07T12:45:27.160Z,1111.5
2019-05-07T12:46:27.131Z,1110.67
2019-05-07T12:47:27.113Z,1109.76
2019-05-07T12:48:27.184Z,1109.34
2019-05-07T12:49:27.195Z,1108.7
2019-05-07T12:50:27.285Z,1108.17
2019-05-07T12:51:34.374Z,1107.8
2019-05-07T12:52:27.133Z,1107.22
2019-05-07T12:53:27.156Z,1106.93
2019-05-07T12:54:27.145Z,1106.24
2019-05-07T12:55:27.147Z,1105.14
2019-05-07T12:56:27.132Z,1104.16
2019-05-07T12:57:27.134Z,1103.33